NZAA/AKL METAR and TAF weather

Enter ICAO airport designator
Station Type Date Time Source
NZAA METAR 2019/02/22 22:30 UTC NOAA

NZAA 222230Z AUTO 21013KT 9999 SCT017/// OVC028/// 21/17 Q1006 NOSIG


Station Type Date Time Source
NZAA Decoded METAR 2019/02/22 22:30 UTC NOAA

Auckland Airport, New Zealand (NZAA) 37-01S 174-48E 6M
Feb 22, 2019 - 05:30 PM EST / 2019.02.22 2230 UTC
Wind: from the SSW (210 degrees) at 15 MPH (13 KT):0
Visibility: greater than 7 mile(s):0
Sky conditions: overcast
Temperature: 69 F (21 C)
Dew Point: 62 F (17 C)
Relative Humidity: 77%
Pressure (altimeter): 29.71 in. Hg (1006 hPa)
ob: NZAA 222230Z AUTO 21013KT 9999 SCT017/// OVC028/// 21/17 Q1006 NOSIG
cycle: 22

Station Type Date Time Source
NZAA TAF 2019/02/22 18:26 UTC NOAA

TAF NZAA 221718Z 2218/2318 VRB02KT 9999 BKN008
BECMG 2218/2220 22010KT SCT020 BKN050
FM222200 22015G25KT 9999 FEW030
BECMG 2306/2308 22010KT
BECMG 2312/2314 28008KT
TEMPO 2316/2318 7000 SHRA


Example: see airport list